AirNav   Textron
 
 649 users online  

30F Lakeview Airport
Lake Dallas, Texas, USA

GOING TO LAKE DALLAS?


FAA INFORMATION EFFECTIVE 09 NOVEMBER 2017

Location

FAA Identifier: 30F
Lat/Long: 33-07-53.0000N / 097-00-51.1000W
33-07.883333N / 097-00.851667W
33.1313889 / -97.0141944
(estimated)
Elevation: 535 ft. / 163 m (estimated)
Variation: 07E (1985)
From city: 1 mile NE of LAKE DALLAS, TX
Time zone: UTC -6 (UTC -5 during Daylight Saving Time)
Zip code: 75065

Airport Operations

Airport use: Open to the public
Activation date: 03/1959
Control tower: no
ARTCC: FORT WORTH CENTER
FSS: FORT WORTH FLIGHT SERVICE STATION
NOTAMs facility: FTW (NOTAM-D service available)
Attendance: UNATNDD
Wind indicator: yes
Segmented circle: no

Airport Communications

CTAF: 122.9
WX ASOS at DTO (10 nm NW): 119.325 (940-383-8457)
WX AWOS-3 at ADS (13 nm SE): PHONE 972-386-4855
WX ASOS at DFW (14 nm S): PHONE 972-615-2608
WX ASOS at AFW (18 nm SW): PHONE 817-491-6188
WX ASOS at DAL (19 nm SE): PHONE 214-353-1551

Nearby radio navigation aids

VOR radial/distance  VOR name  Freq  Var
CVEr333/15.5COWBOY VOR/DME116.2006E
TTTr359/15.8MAVERICK VOR/DME113.1006E
FUZr024/16.7RANGER VORTAC115.7006E

 
NDB name  Hdg/Dist  Freq  Var  ID
PINCK131/12.925704EDT -.. -
MELISA247/22.742103EVLY ...- .-.. -.--
MESQUITE305/31.124803EPQF .--. --.- ..-.
JECCA313/36.938806EJUG .--- ..- --.
CADDO MILLS272/38.931606EMII -- .. ..

Airport Services

Parking: tiedowns
Bottled oxygen: NONE
Bulk oxygen: NONE

Runway Information

Runway 18L/36R

Dimensions: 2815 x 30 ft. / 858 x 9 m
Surface: asphalt, in poor condition
PAVEMENT UNEVEN WITH LOOSE STONES.
Weight bearing capacity: 
Single wheel: 4.0
RUNWAY 18L  RUNWAY 36R
Gradient: 1.0%1.0%
Traffic pattern: leftleft
Obstructions: 25 ft. trees, 220 ft. from runway, 75 ft. right of centerline
15 FT TREE 70 FT RIGHT 75 FT FM THLD.
39 ft. pole, 390 ft. from runway, 130 ft. right of centerline, 4:1 slope to clear
15 FT ROAD 168 FT FM THLD ACROSS APCH PATH.

Runway 18R/36L

Dimensions: 2600 x 75 ft. / 792 x 23 m
Surface: turf, in fair condition
RUNWAY 18R  RUNWAY 36L
Latitude: 33-08.096678N33-07.668668N
Longitude: 097-00.836512W097-00.868162W
Elevation: 534.0 ft.531.0 ft.
Traffic pattern: leftleft
Runway heading: 177 magnetic, 184 true357 magnetic, 004 true
Obstructions: 40 ft. trees, 400 ft. from runway, 140 ft. right of centerline, 10:1 slope to clear23 ft. pline, 462 ft. from runway, 130 ft. left of centerline, 20:1 slope to clear

Airport Ownership and Management from official FAA records

Ownership: Publicly-owned
Owner: U S GOVT & SQUIER FAMILY
PO BOX 1026
LAKE DALLAS, TX 75065
Phone 214-850-8180
ARPT PROPERTY SOUTH FM S-TWY LEASED FROM U.S. GOVT-CORPS OF ENGINEERS BY LAKE DALLAS BOAT WORKS & LAKEVIEW AIRPORT; BLDG AREA & RY NORTH OF S-TWY OWNED BY LAKEVIEW ARPT.
Manager: RANDY SQUIER
PO BOX 356
LAKE DALLAS, TX 75065
Phone 214-850-8180

Airport Operational Statistics

Aircraft based on the field: 64
Single engine airplanes: 63
Ultralights: 1
    
Aircraft operations: avg 96/week *
80% local general aviation
20% transient general aviation
* for 12-month period ending 13 February 2015

Additional Remarks

NO TGL PERMITTED.
ARPT CLSD TO TRANSIENT STUDENTS.
BIRDS ON AND INVOF ARPT.
POWERED PARACHUTES AND BALLOONS PROHIBITED.
RWY 18L/36R LAKE 350 FT FM NORTH END OF RY, 170 FT FM SOUTH END. PORTIONS OF RY MAY BE UNDER WATER DURING HEAVY RAINS.
GATE LOCKED 24 HRS.
FOR CD CTC REGIONAL APCH AT 972-615-2799.

Instrument Procedures

There are no published instrument procedures at 30F.

Some nearby airports with instrument procedures:

KDTO - Denton Enterprise Airport (10 nm NW)
KADS - Addison Airport (13 nm SE)
KDFW - Dallas-Fort Worth International Airport (14 nm S)
KAFW - Fort Worth Alliance Airport (18 nm SW)
KDAL - Dallas Love Field Airport (19 nm SE)
 
Loc | Ops | Rwys | IFR | FBO | Links
Com | Nav | Svcs | Stats | Notes

Lake Texoma Jet Center
AirBoss

 
Area around 30F (Lakeview Airport)
 
Road maps at: MapQuest Bing Google
 
Aerial photo
WARNING: Photo may not be current or correct
Aerial photo of 30F (Lakeview Airport)
Photo taken 02-Dec-2014
from 2,500' looking south

Do you have a better or more recent aerial photo of Lakeview Airport that you would like to share? If so, please send us your photo.

 
Sectional chart

 
Airport distance calculator
Flying to Lakeview Airport? Find the distance to fly.

From to 30F

Sunrise and sunset
Times for 21-Nov-2017
 Local
(UTC-6)
 Zulu
(UTC)
Morning civil twilight06:3912:39
Sunrise07:0513:05
Sunset17:2223:22
Evening civil twilight17:4923:49

Current date and time
Zulu (UTC)  22-Nov-2017 04:43:31
Local (UTC-6)  21-Nov-2017 22:43:31
 
METAR
KDTO 
10nm NW 
220353Z 36010KT 10SM CLR 12/02 A3023 RMK AO2 SLP232 T01170022
KDFW 
14nm S 
220353Z 02017KT 10SM CLR 14/03 A3019 RMK AO2 SLP219 T01390033
KADS 
14nm SE 
220415Z AUTO 01011G18KT 10SM CLR 13/02 A3023 RMK AO2 T01280018
KAFW 
18nm SW 
220353Z 36012KT 10SM CLR 12/02 A3022 RMK AO2 SLP232 T01220022
KDAL 
19nm SE 
220353Z 02012G20KT 10SM CLR 14/02 A3020 RMK AO2 PK WND 02026/0341 SLP222 T01440022
TAF
KDFW 
14nm S 
220257Z 2203/2306 01015KT P6SM SKC FM221500 36013KT P6SM SKC FM230300 33005KT P6SM SKC
KAFW 
18nm SW 
220257Z 2203/2224 01015KT P6SM SKC FM221500 36013KT P6SM SKC
KDAL 
19nm SE 
220258Z 2203/2224 01016KT P6SM FEW250 FM221500 36013KT P6SM SKC
NOTAMs
Click for the latest NOTAMs
NOTAMs are issued by the DoD/FAA and will open in a separate window not controlled by AirNav.

 

 
 

Would you like to see your business listed on this page?

 If your business provides an interesting product or service to pilots, flight crews, aircraft, or users of the Lakeview Airport, you should consider listing it here.  To start the listing process, click on the button below
 
Add a business
 

Other Pages about Lakeview Airport

Update a link
 
Copyright © AirNav, LLC. All rights reserved. Privacy Policy  Contact